createdAt,value
2023-02-11T00:00:44.346Z,1.53
2023-02-11T00:02:47.998Z,1.51
2023-02-11T00:04:50.216Z,1.52
2023-02-11T00:06:55.113Z,1.50
2023-02-11T00:08:57.242Z,1.50
2023-02-11T00:11:05.414Z,1.51
2023-02-11T00:13:08.099Z,1.50
2023-02-11T00:15:10.582Z,1.49
2023-02-11T00:17:32.283Z,1.49
2023-02-11T00:19:54.709Z,1.45
2023-02-11T00:22:17.177Z,1.47
2023-02-11T00:24:39.528Z,1.47
2023-02-11T00:26:42.112Z,1.46
2023-02-11T00:28:44.509Z,1.46
2023-02-11T00:30:46.670Z,1.45
2023-02-11T00:32:51.171Z,1.44
2023-02-11T00:34:55.284Z,1.44
2023-02-11T00:36:57.394Z,1.46
2023-02-11T00:39:00.128Z,1.45
2023-02-11T00:41:02.201Z,1.44
2023-02-11T00:43:04.228Z,1.44
2023-02-11T00:45:26.664Z,1.45
2023-02-11T00:47:49.085Z,1.46
2023-02-11T00:50:11.403Z,1.44
2023-02-11T00:52:33.782Z,1.45
2023-02-11T00:54:56.211Z,1.42
2023-02-11T00:57:18.563Z,1.42
2023-02-11T00:59:22.200Z,1.43
2023-02-11T01:01:24.473Z,1.44
2023-02-11T01:03:26.658Z,1.41
2023-02-11T01:05:30.158Z,1.42
2023-02-11T01:07:32.258Z,1.41
2023-02-11T01:09:34.308Z,1.41
2023-02-11T01:11:56.664Z,1.45
2023-02-11T01:13:59.095Z,1.43
2023-02-11T01:16:01.375Z,1.41
2023-02-11T01:18:05.175Z,1.40
2023-02-11T01:20:09.132Z,1.41
2023-02-11T01:22:11.167Z,1.42
2023-02-11T01:24:13.173Z,1.40
2023-02-11T01:26:35.529Z,1.41
2023-02-11T01:29:00.129Z,1.41
2023-02-11T01:31:22.549Z,1.40
2023-02-11T01:33:44.975Z,1.40
2023-02-11T01:36:07.788Z,1.41
2023-02-11T01:38:30.422Z,1.42
2023-02-11T01:40:56.292Z,1.44
2023-02-11T01:43:18.910Z,1.41
2023-02-11T01:45:50.133Z,1.40
2023-02-11T01:47:58.096Z,1.41
2023-02-11T01:50:00.169Z,1.41
2023-02-11T01:52:30.076Z,1.37
2023-02-11T01:55:25.889Z,1.36
2023-02-11T01:57:51.796Z,1.31
2023-02-11T02:00:42.703Z,1.30
2023-02-11T02:03:20.137Z,1.29
2023-02-11T02:05:25.435Z,1.30
2023-02-11T02:07:52.709Z,1.29
2023-02-11T02:10:00.762Z,1.27
2023-02-11T02:12:02.815Z,1.28
2023-02-11T02:14:04.866Z,1.26
2023-02-11T02:16:36.691Z,1.27
2023-02-11T02:19:38.975Z,1.25
2023-02-11T02:22:14.347Z,1.25
2023-02-11T02:25:50.553Z,1.24
2023-02-11T02:28:36.545Z,1.24
2023-02-11T02:31:59.159Z,1.19
2023-02-11T02:34:47.916Z,1.19
2023-02-11T02:37:31.325Z,1.21
2023-02-11T02:39:53.678Z,1.18
2023-02-11T02:42:16.365Z,1.17
2023-02-11T02:44:38.702Z,1.17
2023-02-11T02:47:01.087Z,1.15
2023-02-11T02:49:23.513Z,1.15
2023-02-11T02:52:27.667Z,1.17
2023-02-11T02:55:12.005Z,1.17
2023-02-11T02:57:48.295Z,1.15
2023-02-11T03:00:30.173Z,1.13
2023-02-11T03:03:44.532Z,1.15
2023-02-11T03:06:26.785Z,1.12
2023-02-11T03:09:01.685Z,1.14
2023-02-11T03:11:24.049Z,1.13
2023-02-11T03:13:46.819Z,1.13
2023-02-11T03:16:13.930Z,1.11
2023-02-11T03:18:36.487Z,1.11
2023-02-11T03:20:42.528Z,1.15
2023-02-11T03:22:56.057Z,1.14
2023-02-11T03:24:58.074Z,1.13
2023-02-11T03:27:39.535Z,1.17
2023-02-11T03:30:06.289Z,1.13
2023-02-11T03:32:32.966Z,1.14
2023-02-11T03:35:09.133Z,1.15
2023-02-11T03:37:43.757Z,1.14
2023-02-11T03:40:19.032Z,1.13
2023-02-11T03:42:53.715Z,1.16
2023-02-11T03:45:10.925Z,1.16
2023-02-11T03:47:13.154Z,1.15
2023-02-11T03:49:15.624Z,1.15
2023-02-11T03:51:27.439Z,1.14
2023-02-11T03:53:29.487Z,1.15
2023-02-11T03:55:32.177Z,1.14
2023-02-11T03:57:45.335Z,1.16
2023-02-11T03:59:57.635Z,1.13
2023-02-11T04:01:59.671Z,1.15
2023-02-11T04:04:18.189Z,1.16
2023-02-11T04:06:20.317Z,1.17
2023-02-11T04:08:22.345Z,1.17
2023-02-11T04:10:30.111Z,1.17
2023-02-11T04:12:32.168Z,1.17
2023-02-11T04:14:34.236Z,1.13
2023-02-11T04:16:38.181Z,1.15
2023-02-11T04:18:40.221Z,1.17
2023-02-11T04:20:42.232Z,1.14
2023-02-11T04:22:45.158Z,1.15
2023-02-11T04:24:47.215Z,1.17
2023-02-11T04:26:49.350Z,1.15
2023-02-11T04:28:51.437Z,1.14
2023-02-11T04:30:53.461Z,1.16
2023-02-11T04:32:55.468Z,1.14
2023-02-11T04:34:58.027Z,1.13
2023-02-11T04:37:00.096Z,1.12
2023-02-11T04:39:02.192Z,1.12
2023-02-11T04:41:04.425Z,1.13
2023-02-11T04:43:06.555Z,1.12
2023-02-11T04:45:09.117Z,1.12
2023-02-11T04:47:15.420Z,1.12
2023-02-11T04:49:17.646Z,1.14
2023-02-11T04:51:19.670Z,1.12
2023-02-11T04:53:24.132Z,1.13
2023-02-11T04:55:26.162Z,1.13
2023-02-11T04:57:28.253Z,1.12
2023-02-11T04:59:31.155Z,1.13
2023-02-11T05:01:33.335Z,1.14
2023-02-11T05:03:35.505Z,1.12
2023-02-11T05:05:48.294Z,1.13
2023-02-11T05:07:50.655Z,1.13
2023-02-11T05:09:52.684Z,1.13
2023-02-11T05:12:15.253Z,1.10
2023-02-11T05:14:37.633Z,1.10
2023-02-11T05:16:40.177Z,1.14
2023-02-11T05:18:42.858Z,1.11
2023-02-11T05:20:44.887Z,1.11
2023-02-11T05:23:08.414Z,1.10
2023-02-11T05:25:30.784Z,1.09
2023-02-11T05:27:32.797Z,1.05
2023-02-11T05:29:34.821Z,1.04
2023-02-11T05:31:40.063Z,1.06
2023-02-11T05:33:42.288Z,1.05
2023-02-11T05:35:44.344Z,1.02
2023-02-11T05:37:46.516Z,1.04
2023-02-11T05:39:48.716Z,1.05
2023-02-11T05:41:50.693Z,1.04
2023-02-11T05:44:13.091Z,0.99
2023-02-11T05:46:35.503Z,0.99
2023-02-11T05:48:52.438Z,0.99
2023-02-11T05:50:54.472Z,0.96
2023-02-11T05:52:56.501Z,0.93
2023-02-11T05:55:04.415Z,0.91
2023-02-11T05:57:06.420Z,0.89
2023-02-11T05:59:08.440Z,0.86
2023-02-11T06:01:22.152Z,0.83
2023-02-11T06:03:24.216Z,0.82
2023-02-11T06:05:26.515Z,0.79
2023-02-11T06:07:48.921Z,0.78
2023-02-11T06:10:11.412Z,0.79
2023-02-11T06:12:13.505Z,0.79
2023-02-11T06:14:15.581Z,0.81
2023-02-11T06:16:17.645Z,0.80
2023-02-11T06:18:19.810Z,0.80
2023-02-11T06:20:21.906Z,0.79
2023-02-11T06:22:23.928Z,0.85
2023-02-11T06:24:50.971Z,0.85
2023-02-11T06:26:48.101Z,0.86
2023-02-11T06:28:50.239Z,0.84
2023-02-11T06:30:52.424Z,0.85
2023-02-11T06:32:55.108Z,0.86
2023-02-11T06:34:57.121Z,0.89
2023-02-11T06:36:59.184Z,0.88
2023-02-11T06:39:01.250Z,0.90
2023-02-11T06:41:03.383Z,0.90
2023-02-11T06:43:05.518Z,0.91
2023-02-11T06:45:13.237Z,0.93
2023-02-11T06:47:15.317Z,0.96
2023-02-11T06:49:17.346Z,0.96
2023-02-11T06:51:19.396Z,0.99
2023-02-11T06:53:21.487Z,1.02
2023-02-11T06:55:23.606Z,1.04
2023-02-11T06:57:25.715Z,1.05
2023-02-11T06:59:27.758Z,1.06
2023-02-11T07:01:29.911Z,1.09
2023-02-11T07:03:50.962Z,1.10
2023-02-11T07:06:18.037Z,1.11
2023-02-11T07:08:42.482Z,1.13
2023-02-11T07:11:11.450Z,1.14
2023-02-11T07:13:13.521Z,1.13
2023-02-11T07:15:33.872Z,1.17
2023-02-11T07:17:54.151Z,1.22
2023-02-11T07:20:16.905Z,1.24
2023-02-11T07:22:39.259Z,1.23
2023-02-11T07:25:01.657Z,1.27
2023-02-11T07:27:24.057Z,1.27
2023-02-11T07:29:29.074Z,1.30
2023-02-11T07:31:31.558Z,1.30
2023-02-11T07:33:39.723Z,1.32
2023-02-11T07:36:01.452Z,1.35
2023-02-11T07:38:21.364Z,1.36
2023-02-11T07:40:41.842Z,1.39
2023-02-11T07:43:04.351Z,1.39
2023-02-11T07:45:07.080Z,1.39
2023-02-11T07:47:09.143Z,1.40
2023-02-11T07:49:12.221Z,1.43
2023-02-11T07:51:19.069Z,1.45
2023-02-11T07:53:21.141Z,1.47
2023-02-11T07:55:23.254Z,1.50
2023-02-11T07:57:25.385Z,1.53
2023-02-11T07:59:27.600Z,1.54
2023-02-11T08:01:30.315Z,1.58
2023-02-11T08:03:39.906Z,1.59
2023-02-11T08:06:12.660Z,1.63
2023-02-11T08:08:33.627Z,1.66
2023-02-11T08:10:56.025Z,1.69
2023-02-11T08:13:18.387Z,1.75
2023-02-11T08:15:40.864Z,1.76
2023-02-11T08:18:03.334Z,1.79
2023-02-11T08:20:25.660Z,1.87
2023-02-11T08:22:48.020Z,1.89
2023-02-11T08:25:10.371Z,1.93
2023-02-11T08:27:32.790Z,1.95
2023-02-11T08:29:55.605Z,1.98
2023-02-11T08:32:18.042Z,1.96
2023-02-11T08:34:40.762Z,2.00
2023-02-11T08:36:52.616Z,2.00
2023-02-11T08:39:08.574Z,2.00
2023-02-11T08:41:18.202Z,2.02
2023-02-11T08:43:26.207Z,2.04
2023-02-11T08:45:28.640Z,2.06
2023-02-11T08:47:31.506Z,2.08
2023-02-11T08:49:34.168Z,2.08
2023-02-11T08:51:36.159Z,2.06
2023-02-11T08:53:38.213Z,2.07
2023-02-11T08:55:40.348Z,2.08
2023-02-11T08:57:42.371Z,2.10
2023-02-11T08:59:44.434Z,2.16
2023-02-11T09:01:47.865Z,2.16
2023-02-11T09:03:50.028Z,2.20
2023-02-11T09:06:06.916Z,2.26
2023-02-11T09:08:29.390Z,2.28
2023-02-11T09:10:51.960Z,2.32
2023-02-11T09:13:14.672Z,2.34
2023-02-11T09:15:37.049Z,2.39
2023-02-11T09:17:40.058Z,2.42
2023-02-11T09:19:42.101Z,2.44
2023-02-11T09:21:44.481Z,2.51
2023-02-11T09:24:06.678Z,2.52
2023-02-11T09:26:10.704Z,2.55
2023-02-11T09:28:12.784Z,2.56
2023-02-11T09:30:14.933Z,2.59
2023-02-11T09:32:17.068Z,2.59
2023-02-11T09:34:19.208Z,2.62
2023-02-11T09:36:40.370Z,2.64
2023-02-11T09:38:42.918Z,2.64
2023-02-11T09:40:45.374Z,2.66
2023-02-11T09:43:04.278Z,2.66
2023-02-11T09:45:13.425Z,2.68
2023-02-11T09:47:24.519Z,2.66
2023-02-11T09:49:39.133Z,2.67
2023-02-11T09:51:44.366Z,2.64
2023-02-11T09:53:49.461Z,2.63
2023-02-11T09:55:57.286Z,2.63
2023-02-11T09:58:03.580Z,2.65
2023-02-11T10:00:17.110Z,2.63
2023-02-11T10:02:47.982Z,2.65
2023-02-11T10:05:26.480Z,2.66
2023-02-11T10:07:34.652Z,2.66
2023-02-11T10:10:21.863Z,2.69
2023-02-11T10:12:46.404Z,2.67
2023-02-11T10:15:24.646Z,2.67
2023-02-11T10:17:52.746Z,2.73
2023-02-11T10:20:08.382Z,2.78
2023-02-11T10:22:35.472Z,2.85
2023-02-11T10:24:37.701Z,2.86
2023-02-11T10:26:57.996Z,2.91
2023-02-11T10:29:44.003Z,2.95
2023-02-11T10:32:45.042Z,2.97
2023-02-11T10:34:47.075Z,3.01
2023-02-11T10:37:07.689Z,3.07
2023-02-11T10:39:26.750Z,3.13
2023-02-11T10:41:51.504Z,3.15
2023-02-11T10:43:53.530Z,3.15
2023-02-11T10:45:56.392Z,3.17
2023-02-11T10:48:00.977Z,3.21
2023-02-11T10:50:25.919Z,3.21
2023-02-11T10:52:30.586Z,3.22
2023-02-11T10:54:32.736Z,3.24
2023-02-11T10:56:36.594Z,3.25
2023-02-11T10:58:47.156Z,3.23
2023-02-11T11:00:53.290Z,3.28
2023-02-11T11:03:17.702Z,3.24
2023-02-11T11:05:32.732Z,3.23
2023-02-11T11:07:34.870Z,3.27
2023-02-11T11:09:53.542Z,3.26
2023-02-11T11:11:56.138Z,3.28
2023-02-11T11:13:59.967Z,3.31
2023-02-11T11:16:13.852Z,3.31
2023-02-11T11:18:23.033Z,3.28
2023-02-11T11:20:32.130Z,3.31
2023-02-11T11:22:34.159Z,3.33
2023-02-11T11:24:44.631Z,3.34
2023-02-11T11:26:51.691Z,3.36
2023-02-11T11:29:02.703Z,3.38
2023-02-11T11:31:05.166Z,3.40
2023-02-11T11:33:20.625Z,3.43
2023-02-11T11:35:30.473Z,3.44
2023-02-11T11:37:33.572Z,3.46
2023-02-11T11:39:35.604Z,3.51
2023-02-11T11:41:37.829Z,3.53
2023-02-11T11:43:40.116Z,3.55
2023-02-11T11:46:03.013Z,3.58
2023-02-11T11:48:14.718Z,3.60
2023-02-11T11:50:38.109Z,3.61
2023-02-11T11:53:05.290Z,3.61
2023-02-11T11:55:27.367Z,3.64
2023-02-11T11:57:30.730Z,3.67
2023-02-11T11:59:32.763Z,3.70
2023-02-11T12:01:47.778Z,3.70
2023-02-11T12:04:10.617Z,3.72
2023-02-11T12:06:53.743Z,3.73
2023-02-11T12:09:14.208Z,3.76
2023-02-11T12:11:26.579Z,3.79
2023-02-11T12:13:54.785Z,3.79
2023-02-11T12:16:27.429Z,3.80
2023-02-11T12:18:50.157Z,3.82
2023-02-11T12:20:58.043Z,3.82
2023-02-11T12:23:24.248Z,3.85
2023-02-11T12:26:12.269Z,3.85
2023-02-11T12:28:55.109Z,3.88
2023-02-11T12:31:22.881Z,3.91
2023-02-11T12:33:50.980Z,3.92
2023-02-11T12:35:56.876Z,3.93
2023-02-11T12:38:59.514Z,3.95
2023-02-11T12:41:46.865Z,3.99
2023-02-11T12:43:48.874Z,4.02
2023-02-11T12:46:12.558Z,4.04
2023-02-11T12:48:50.458Z,4.06
2023-02-11T12:51:16.554Z,4.08
2023-02-11T12:54:15.099Z,4.12
2023-02-11T12:57:27.887Z,4.13
2023-02-11T13:00:05.421Z,4.14
2023-02-11T13:02:54.405Z,4.13
2023-02-11T13:05:34.737Z,4.16
2023-02-11T13:08:17.104Z,4.13
2023-02-11T13:10:38.680Z,4.21
2023-02-11T13:12:59.353Z,4.16
2023-02-11T13:15:06.834Z,4.16
2023-02-11T13:17:21.773Z,4.17
2023-02-11T13:19:34.023Z,4.11
2023-02-11T13:21:59.918Z,4.15
2023-02-11T13:24:37.171Z,4.20
2023-02-11T13:27:10.515Z,4.15
2023-02-11T13:29:32.984Z,4.17
2023-02-11T13:31:35.152Z,4.15
2023-02-11T13:33:43.312Z,4.19
2023-02-11T13:36:10.710Z,4.18
2023-02-11T13:38:27.688Z,4.17
2023-02-11T13:40:38.090Z,4.17
2023-02-11T13:42:58.092Z,4.12
2023-02-11T13:45:00.409Z,4.16
2023-02-11T13:47:05.045Z,4.14
2023-02-11T13:49:25.370Z,4.15
2023-02-11T13:51:40.657Z,4.17
2023-02-11T13:53:53.429Z,4.14
2023-02-11T13:56:08.831Z,4.14
2023-02-11T13:58:27.360Z,4.20
2023-02-11T14:00:35.345Z,4.19
2023-02-11T14:02:55.858Z,4.17
2023-02-11T14:05:22.241Z,4.18
2023-02-11T14:07:50.260Z,4.16
2023-02-11T14:09:57.063Z,4.19
2023-02-11T14:12:24.474Z,4.18
2023-02-11T14:14:33.937Z,4.17
2023-02-11T14:16:38.619Z,4.16
2023-02-11T14:18:55.945Z,4.19
2023-02-11T14:21:25.871Z,4.16
2023-02-11T14:23:27.925Z,4.16
2023-02-11T14:25:29.966Z,4.15
2023-02-11T14:27:47.674Z,4.17
2023-02-11T14:30:23.545Z,4.18
2023-02-11T14:32:50.894Z,4.21
2023-02-11T14:35:10.800Z,4.20
2023-02-11T14:37:28.071Z,4.25
2023-02-11T14:40:00.763Z,4.26
2023-02-11T14:42:02.993Z,4.30
2023-02-11T14:44:06.780Z,4.31
2023-02-11T14:46:09.829Z,4.29
2023-02-11T14:48:19.768Z,4.30
2023-02-11T14:50:45.528Z,4.28
2023-02-11T14:52:47.531Z,4.26
2023-02-11T14:54:49.873Z,4.28
2023-02-11T14:57:14.963Z,4.29
2023-02-11T14:59:22.215Z,4.28
2023-02-11T15:01:36.042Z,4.23
2023-02-11T15:03:38.915Z,4.24
2023-02-11T15:05:41.200Z,4.24
2023-02-11T15:07:49.210Z,4.25
2023-02-11T15:09:52.936Z,4.22
2023-02-11T15:11:55.279Z,4.27
2023-02-11T15:13:59.154Z,4.28
2023-02-11T15:16:06.615Z,4.26
2023-02-11T15:18:10.498Z,4.29
2023-02-11T15:20:26.088Z,4.29
2023-02-11T15:22:33.562Z,4.26
2023-02-11T15:24:36.277Z,4.27
2023-02-11T15:26:38.424Z,4.27
2023-02-11T15:28:48.919Z,4.27
2023-02-11T15:31:16.977Z,4.23
2023-02-11T15:33:23.327Z,4.25
2023-02-11T15:35:37.724Z,4.26
2023-02-11T15:37:40.904Z,4.26
2023-02-11T15:39:43.308Z,4.24
2023-02-11T15:41:45.518Z,4.31
2023-02-11T15:43:50.825Z,4.27
2023-02-11T15:45:57.058Z,4.25
2023-02-11T15:48:20.630Z,4.25
2023-02-11T15:50:26.977Z,4.23
2023-02-11T15:52:29.195Z,4.26
2023-02-11T15:54:32.624Z,4.31
2023-02-11T15:56:43.572Z,4.32
2023-02-11T15:58:47.636Z,4.25
2023-02-11T16:00:51.829Z,4.31
2023-02-11T16:02:54.230Z,4.32
2023-02-11T16:05:04.965Z,4.31
2023-02-11T16:07:07.137Z,4.30
2023-02-11T16:09:12.776Z,4.30
2023-02-11T16:11:30.578Z,4.30
2023-02-11T16:13:35.514Z,4.28
2023-02-11T16:15:49.705Z,4.31
2023-02-11T16:17:53.294Z,4.34
2023-02-11T16:19:55.578Z,4.37
2023-02-11T16:22:00.156Z,4.38
2023-02-11T16:24:02.678Z,4.35
2023-02-11T16:26:33.099Z,4.39
2023-02-11T16:28:37.206Z,4.37
2023-02-11T16:30:39.908Z,4.36
2023-02-11T16:32:41.840Z,4.40
2023-02-11T16:34:44.055Z,4.42
2023-02-11T16:36:47.136Z,4.39
2023-02-11T16:38:49.290Z,4.33
2023-02-11T16:40:56.432Z,4.35
2023-02-11T16:42:58.517Z,4.32
2023-02-11T16:45:00.546Z,4.27
2023-02-11T16:47:28.055Z,4.22
2023-02-11T16:49:50.400Z,4.24
2023-02-11T16:52:14.512Z,4.20
2023-02-11T16:54:17.211Z,4.22
2023-02-11T16:56:19.281Z,4.17
2023-02-11T16:58:21.478Z,4.18
2023-02-11T17:00:24.093Z,4.19
2023-02-11T17:02:31.994Z,4.16
2023-02-11T17:04:34.579Z,4.20
2023-02-11T17:06:36.606Z,4.16
2023-02-11T17:08:39.551Z,4.17
2023-02-11T17:10:41.794Z,4.16
2023-02-11T17:12:43.851Z,4.16
2023-02-11T17:14:45.883Z,4.18
2023-02-11T17:16:48.187Z,4.16
2023-02-11T17:19:12.530Z,4.17
2023-02-11T17:21:14.721Z,4.21
2023-02-11T17:23:17.085Z,4.22
2023-02-11T17:25:19.305Z,4.20
2023-02-11T17:27:21.436Z,4.25
2023-02-11T17:29:36.071Z,4.23
2023-02-11T17:31:39.402Z,4.23
2023-02-11T17:33:41.553Z,4.27
2023-02-11T17:36:10.720Z,4.23
2023-02-11T17:38:21.129Z,4.28
2023-02-11T17:40:23.174Z,4.26
2023-02-11T17:42:25.307Z,4.33
2023-02-11T17:44:34.230Z,4.34
2023-02-11T17:46:36.425Z,4.34
2023-02-11T17:48:38.789Z,4.38
2023-02-11T17:50:46.070Z,4.38
2023-02-11T17:52:48.125Z,4.40
2023-02-11T17:54:50.391Z,4.43
2023-02-11T17:56:58.647Z,4.42
2023-02-11T17:59:02.511Z,4.42
2023-02-11T18:01:04.761Z,4.37
2023-02-11T18:03:27.219Z,4.36
2023-02-11T18:05:37.288Z,4.40
2023-02-11T18:07:39.553Z,4.40
2023-02-11T18:09:41.952Z,4.42
2023-02-11T18:12:05.448Z,4.42
2023-02-11T18:14:27.857Z,4.43
2023-02-11T18:16:38.706Z,4.32
2023-02-11T18:18:41.146Z,4.32
2023-02-11T18:20:43.350Z,4.31
2023-02-11T18:22:49.124Z,4.28
2023-02-11T18:24:54.403Z,4.32
2023-02-11T18:26:56.497Z,4.36
2023-02-11T18:29:18.691Z,4.42
2023-02-11T18:31:22.042Z,4.43
2023-02-11T18:33:24.202Z,4.37
2023-02-11T18:35:49.215Z,4.42
2023-02-11T18:38:11.711Z,4.43
2023-02-11T18:40:34.205Z,4.43
2023-02-11T18:42:46.201Z,4.44
2023-02-11T18:45:10.011Z,4.44
2023-02-11T18:47:12.028Z,4.47
2023-02-11T18:49:36.252Z,4.45
2023-02-11T18:51:41.024Z,4.47
2023-02-11T18:54:01.780Z,4.50
2023-02-11T18:56:23.448Z,4.48
2023-02-11T18:58:37.744Z,4.48
2023-02-11T19:00:41.647Z,4.49
2023-02-11T19:02:43.724Z,4.50
2023-02-11T19:04:47.165Z,4.45
2023-02-11T19:06:55.284Z,4.49
2023-02-11T19:09:00.288Z,4.51
2023-02-11T19:11:42.702Z,4.47
2023-02-11T19:14:10.195Z,4.44
2023-02-11T19:16:14.023Z,4.44
2023-02-11T19:18:16.240Z,4.47
2023-02-11T19:20:20.233Z,4.45
2023-02-11T19:22:40.993Z,4.47
2023-02-11T19:24:43.048Z,4.49
2023-02-11T19:26:51.554Z,4.49
2023-02-11T19:28:53.742Z,4.52
2023-02-11T19:30:55.927Z,4.53
2023-02-11T19:33:18.574Z,4.47
2023-02-11T19:35:40.928Z,4.48
2023-02-11T19:38:04.870Z,4.45
2023-02-11T19:40:27.242Z,4.43
2023-02-11T19:42:43.248Z,4.41
2023-02-11T19:45:05.786Z,4.35
2023-02-11T19:47:07.823Z,4.35
2023-02-11T19:49:14.382Z,4.26
2023-02-11T19:51:16.742Z,4.26
2023-02-11T19:53:18.856Z,4.22
2023-02-11T19:55:21.095Z,4.19
2023-02-11T19:57:23.197Z,4.15
2023-02-11T19:59:25.346Z,4.17
2023-02-11T20:01:32.244Z,4.12
2023-02-11T20:03:34.541Z,4.06
2023-02-11T20:05:39.854Z,4.07
2023-02-11T20:07:41.997Z,4.04
2023-02-11T20:10:02.437Z,4.03
2023-02-11T20:12:22.946Z,4.02
2023-02-11T20:14:32.058Z,4.01
2023-02-11T20:16:47.499Z,3.96
2023-02-11T20:18:50.976Z,3.99
2023-02-11T20:21:19.447Z,3.94
2023-02-11T20:23:42.172Z,3.89
2023-02-11T20:26:11.520Z,3.89
2023-02-11T20:28:32.251Z,3.88
2023-02-11T20:30:58.825Z,3.83
2023-02-11T20:33:11.605Z,3.85
2023-02-11T20:35:17.096Z,3.86
2023-02-11T20:37:19.288Z,3.82
2023-02-11T20:39:41.313Z,3.84
2023-02-11T20:42:04.098Z,3.83
2023-02-11T20:44:27.265Z,3.83
2023-02-11T20:46:50.606Z,3.82
2023-02-11T20:49:21.467Z,3.79
2023-02-11T20:51:44.316Z,3.73
2023-02-11T20:54:07.112Z,3.71
2023-02-11T20:56:13.499Z,3.77
2023-02-11T20:58:15.752Z,3.80
2023-02-11T21:00:18.871Z,3.78
2023-02-11T21:02:24.863Z,3.76
2023-02-11T21:04:29.606Z,3.75
2023-02-11T21:06:45.692Z,3.75
2023-02-11T21:08:54.293Z,3.73
2023-02-11T21:10:56.752Z,3.72
2023-02-11T21:13:10.834Z,3.68
2023-02-11T21:15:20.083Z,3.69
2023-02-11T21:17:22.413Z,3.69
2023-02-11T21:19:24.571Z,3.71
2023-02-11T21:21:47.060Z,3.70
2023-02-11T21:23:49.122Z,3.71
2023-02-11T21:25:54.956Z,3.69
2023-02-11T21:28:00.225Z,3.71
2023-02-11T21:30:02.390Z,3.63
2023-02-11T21:32:07.144Z,3.49
2023-02-11T21:34:29.594Z,3.45
2023-02-11T21:36:52.437Z,3.44
2023-02-11T21:39:15.250Z,3.41
2023-02-11T21:41:37.760Z,3.41
2023-02-11T21:44:00.165Z,3.37
2023-02-11T21:46:22.845Z,3.31
2023-02-11T21:48:45.345Z,3.31
2023-02-11T21:51:32.744Z,3.29
2023-02-11T21:53:59.812Z,3.19
2023-02-11T21:56:22.568Z,3.14
2023-02-11T21:58:45.794Z,3.09
2023-02-11T22:01:16.572Z,3.00
2023-02-11T22:03:39.127Z,2.95
2023-02-11T22:06:06.433Z,3.01
2023-02-11T22:08:30.443Z,3.01
2023-02-11T22:10:52.837Z,2.98
2023-02-11T22:13:15.206Z,2.93
2023-02-11T22:15:37.562Z,2.85
2023-02-11T22:17:59.914Z,2.79
2023-02-11T22:20:22.850Z,2.65
2023-02-11T22:22:45.224Z,2.62
2023-02-11T22:25:08.067Z,2.58
2023-02-11T22:27:30.429Z,2.53
2023-02-11T22:29:53.081Z,2.50
2023-02-11T22:32:17.745Z,2.49
2023-02-11T22:34:40.279Z,2.41
2023-02-11T22:37:02.839Z,2.36
2023-02-11T22:39:25.310Z,2.30
2023-02-11T22:41:47.958Z,2.19
2023-02-11T22:44:10.668Z,2.17
2023-02-11T22:46:33.138Z,2.11
2023-02-11T22:48:55.530Z,2.03
2023-02-11T22:51:23.445Z,1.99
2023-02-11T22:53:59.162Z,1.91
2023-02-11T22:56:21.713Z,1.82
2023-02-11T22:58:44.227Z,1.73
2023-02-11T23:01:06.946Z,1.66
2023-02-11T23:03:29.535Z,1.65
2023-02-11T23:05:31.895Z,1.56
2023-02-11T23:07:33.951Z,1.54
2023-02-11T23:09:35.969Z,1.57
2023-02-11T23:11:45.089Z,1.52
2023-02-11T23:13:47.892Z,1.45
2023-02-11T23:15:49.912Z,1.50
2023-02-11T23:18:12.744Z,1.44
2023-02-11T23:20:24.222Z,1.43
2023-02-11T23:22:26.281Z,1.35
2023-02-11T23:24:28.309Z,1.35
2023-02-11T23:26:38.026Z,1.30
2023-02-11T23:28:40.276Z,1.28
2023-02-11T23:30:42.450Z,1.27
2023-02-11T23:32:44.548Z,1.19
2023-02-11T23:34:46.636Z,1.12
2023-02-11T23:36:48.695Z,1.06
2023-02-11T23:38:51.166Z,0.99
2023-02-11T23:40:53.188Z,0.96
2023-02-11T23:42:55.229Z,0.93
2023-02-11T23:44:57.340Z,0.93
2023-02-11T23:46:59.408Z,0.84
2023-02-11T23:49:04.233Z,0.77
2023-02-11T23:51:14.077Z,0.72
2023-02-11T23:53:16.126Z,0.68
2023-02-11T23:55:18.224Z,0.69
2023-02-11T23:57:20.379Z,0.69
2023-02-11T23:59:22.433Z,0.67
